sensor_id;sensor_type;location;lat;lon;timestamp;P1;durP1;ratioP1;P2;durP2;ratioP2
27746;SDS011;15138;51.012;4.692;2023-03-21T00:01:11;15.65;;;6.57;;
27746;SDS011;15138;51.012;4.692;2023-03-21T00:03:40;14.70;;;6.00;;
27746;SDS011;15138;51.012;4.692;2023-03-21T00:06:10;19.42;;;5.90;;
27746;SDS011;15138;51.012;4.692;2023-03-21T00:08:39;15.57;;;5.40;;
27746;SDS011;15138;51.012;4.692;2023-03-21T00:11:08;16.52;;;5.38;;
27746;SDS011;15138;51.012;4.692;2023-03-21T00:13:37;15.98;;;6.05;;
27746;SDS011;15138;51.012;4.692;2023-03-21T00:16:08;16.13;;;5.97;;
27746;SDS011;15138;51.012;4.692;2023-03-21T00:19:02;19.88;;;6.07;;
27746;SDS011;15138;51.012;4.692;2023-03-21T00:21:32;14.00;;;6.13;;
27746;SDS011;15138;51.012;4.692;2023-03-21T00:24:20;12.05;;;5.63;;
27746;SDS011;15138;51.012;4.692;2023-03-21T00:26:49;15.73;;;6.18;;
27746;SDS011;15138;51.012;4.692;2023-03-21T00:29:19;19.13;;;6.80;;
27746;SDS011;15138;51.012;4.692;2023-03-21T00:31:47;16.55;;;6.20;;
27746;SDS011;15138;51.012;4.692;2023-03-21T00:34:17;13.45;;;6.10;;
27746;SDS011;15138;51.012;4.692;2023-03-21T00:37:06;18.77;;;6.15;;
27746;SDS011;15138;51.012;4.692;2023-03-21T00:39:34;11.63;;;5.50;;
27746;SDS011;15138;51.012;4.692;2023-03-21T00:42:03;15.73;;;6.35;;
27746;SDS011;15138;51.012;4.692;2023-03-21T00:44:31;14.30;;;6.20;;
27746;SDS011;15138;51.012;4.692;2023-03-21T00:47:02;21.90;;;7.22;;
27746;SDS011;15138;51.012;4.692;2023-03-21T00:49:34;15.40;;;6.75;;
27746;SDS011;15138;51.012;4.692;2023-03-21T00:52:04;15.45;;;6.55;;
27746;SDS011;15138;51.012;4.692;2023-03-21T00:54:45;12.15;;;5.63;;
27746;SDS011;15138;51.012;4.692;2023-03-21T00:57:14;20.27;;;7.72;;
27746;SDS011;15138;51.012;4.692;2023-03-21T00:59:45;16.83;;;6.85;;
27746;SDS011;15138;51.012;4.692;2023-03-21T01:02:13;23.50;;;8.15;;
27746;SDS011;15138;51.012;4.692;2023-03-21T01:04:50;16.93;;;7.10;;
27746;SDS011;15138;51.012;4.692;2023-03-21T01:07:18;19.70;;;7.80;;
27746;SDS011;15138;51.012;4.692;2023-03-21T01:09:47;17.25;;;6.13;;
27746;SDS011;15138;51.012;4.692;2023-03-21T01:12:16;14.32;;;5.95;;
27746;SDS011;15138;51.012;4.692;2023-03-21T01:14:44;17.08;;;7.05;;
27746;SDS011;15138;51.012;4.692;2023-03-21T01:17:13;21.50;;;7.28;;
27746;SDS011;15138;51.012;4.692;2023-03-21T01:19:41;16.60;;;7.88;;
27746;SDS011;15138;51.012;4.692;2023-03-21T01:22:19;22.80;;;7.25;;
27746;SDS011;15138;51.012;4.692;2023-03-21T01:24:47;18.70;;;6.97;;
27746;SDS011;15138;51.012;4.692;2023-03-21T01:27:25;21.17;;;7.65;;
27746;SDS011;15138;51.012;4.692;2023-03-21T01:29:54;17.70;;;6.60;;
27746;SDS011;15138;51.012;4.692;2023-03-21T01:32:23;23.17;;;7.57;;
27746;SDS011;15138;51.012;4.692;2023-03-21T01:34:52;22.85;;;7.10;;
27746;SDS011;15138;51.012;4.692;2023-03-21T01:37:22;19.13;;;7.28;;
27746;SDS011;15138;51.012;4.692;2023-03-21T01:39:51;18.50;;;5.75;;
27746;SDS011;15138;51.012;4.692;2023-03-21T01:42:20;19.00;;;7.05;;
27746;SDS011;15138;51.012;4.692;2023-03-21T01:44:53;17.80;;;6.63;;
27746;SDS011;15138;51.012;4.692;2023-03-21T01:47:23;18.13;;;6.60;;
27746;SDS011;15138;51.012;4.692;2023-03-21T01:49:52;17.27;;;6.63;;
27746;SDS011;15138;51.012;4.692;2023-03-21T01:52:24;16.90;;;6.25;;
27746;SDS011;15138;51.012;4.692;2023-03-21T01:55:03;15.70;;;6.45;;
27746;SDS011;15138;51.012;4.692;2023-03-21T01:57:34;17.48;;;6.05;;
27746;SDS011;15138;51.012;4.692;2023-03-21T02:00:20;17.30;;;6.32;;
27746;SDS011;15138;51.012;4.692;2023-03-21T02:02:51;16.85;;;5.95;;
27746;SDS011;15138;51.012;4.692;2023-03-21T02:05:37;13.43;;;5.78;;
27746;SDS011;15138;51.012;4.692;2023-03-21T02:08:09;22.30;;;6.50;;
27746;SDS011;15138;51.012;4.692;2023-03-21T02:10:38;15.93;;;5.97;;
27746;SDS011;15138;51.012;4.692;2023-03-21T02:13:07;21.23;;;6.63;;
27746;SDS011;15138;51.012;4.692;2023-03-21T02:15:37;18.50;;;6.28;;
27746;SDS011;15138;51.012;4.692;2023-03-21T02:18:07;15.35;;;6.13;;
27746;SDS011;15138;51.012;4.692;2023-03-21T02:21:01;15.43;;;5.60;;
27746;SDS011;15138;51.012;4.692;2023-03-21T02:29:44;20.15;;;6.78;;
27746;SDS011;15138;51.012;4.692;2023-03-21T02:32:20;19.67;;;6.05;;
27746;SDS011;15138;51.012;4.692;2023-03-21T02:35:06;19.77;;;6.68;;
27746;SDS011;15138;51.012;4.692;2023-03-21T02:37:42;15.52;;;5.90;;
27746;SDS011;15138;51.012;4.692;2023-03-21T02:40:26;22.17;;;5.82;;
27746;SDS011;15138;51.012;4.692;2023-03-21T02:42:59;17.35;;;5.78;;
27746;SDS011;15138;51.012;4.692;2023-03-21T02:45:44;13.90;;;5.45;;
27746;SDS011;15138;51.012;4.692;2023-03-21T02:48:14;19.10;;;6.00;;
27746;SDS011;15138;51.012;4.692;2023-03-21T02:50:55;19.60;;;5.95;;
27746;SDS011;15138;51.012;4.692;2023-03-21T02:53:27;14.02;;;5.47;;
27746;SDS011;15138;51.012;4.692;2023-03-21T02:55:57;17.58;;;5.88;;
27746;SDS011;15138;51.012;4.692;2023-03-21T02:58:26;19.33;;;6.68;;
27746;SDS011;15138;51.012;4.692;2023-03-21T03:00:55;15.88;;;5.93;;
27746;SDS011;15138;51.012;4.692;2023-03-21T03:03:23;16.58;;;5.97;;
27746;SDS011;15138;51.012;4.692;2023-03-21T03:06:00;17.75;;;5.80;;
27746;SDS011;15138;51.012;4.692;2023-03-21T03:08:32;20.02;;;6.20;;
27746;SDS011;15138;51.012;4.692;2023-03-21T03:11:21;17.63;;;5.38;;
27746;SDS011;15138;51.012;4.692;2023-03-21T03:13:53;22.08;;;5.68;;
27746;SDS011;15138;51.012;4.692;2023-03-21T03:16:48;14.52;;;5.68;;
27746;SDS011;15138;51.012;4.692;2023-03-21T03:19:21;19.25;;;5.68;;
27746;SDS011;15138;51.012;4.692;2023-03-21T03:21:55;21.10;;;6.07;;
27746;SDS011;15138;51.012;4.692;2023-03-21T03:24:28;19.67;;;5.85;;
27746;SDS011;15138;51.012;4.692;2023-03-21T03:26:59;20.23;;;5.68;;
27746;SDS011;15138;51.012;4.692;2023-03-21T03:29:30;16.17;;;5.68;;
27746;SDS011;15138;51.012;4.692;2023-03-21T03:32:01;14.52;;;4.85;;
27746;SDS011;15138;51.012;4.692;2023-03-21T03:34:31;14.15;;;5.45;;
27746;SDS011;15138;51.012;4.692;2023-03-21T03:37:05;16.15;;;4.68;;
27746;SDS011;15138;51.012;4.692;2023-03-21T03:39:39;17.45;;;5.45;;
27746;SDS011;15138;51.012;4.692;2023-03-21T03:42:09;20.17;;;6.32;;
27746;SDS011;15138;51.012;4.692;2023-03-21T03:44:53;17.00;;;5.53;;
27746;SDS011;15138;51.012;4.692;2023-03-21T03:47:23;19.15;;;5.65;;
27746;SDS011;15138;51.012;4.692;2023-03-21T03:50:02;18.75;;;6.15;;
27746;SDS011;15138;51.012;4.692;2023-03-21T03:52:34;14.57;;;4.32;;
27746;SDS011;15138;51.012;4.692;2023-03-21T03:55:21;17.58;;;4.88;;
27746;SDS011;15138;51.012;4.692;2023-03-21T03:57:52;16.00;;;4.53;;
27746;SDS011;15138;51.012;4.692;2023-03-21T04:00:22;16.88;;;5.20;;
27746;SDS011;15138;51.012;4.692;2023-03-21T04:02:51;13.70;;;4.25;;
27746;SDS011;15138;51.012;4.692;2023-03-21T04:05:19;14.27;;;4.03;;
27746;SDS011;15138;51.012;4.692;2023-03-21T04:07:48;12.95;;;4.22;;
27746;SDS011;15138;51.012;4.692;2023-03-21T04:10:16;13.57;;;4.45;;
27746;SDS011;15138;51.012;4.692;2023-03-21T04:12:46;19.05;;;5.05;;
27746;SDS011;15138;51.012;4.692;2023-03-21T04:15:15;16.50;;;4.78;;
27746;SDS011;15138;51.012;4.692;2023-03-21T04:17:44;13.88;;;4.50;;
27746;SDS011;15138;51.012;4.692;2023-03-21T04:20:13;12.65;;;4.60;;
27746;SDS011;15138;51.012;4.692;2023-03-21T04:23:01;12.05;;;5.03;;
27746;SDS011;15138;51.012;4.692;2023-03-21T04:25:29;20.77;;;4.45;;
27746;SDS011;15138;51.012;4.692;2023-03-21T04:28:05;14.55;;;4.45;;
27746;SDS011;15138;51.012;4.692;2023-03-21T04:30:34;19.02;;;4.60;;
27746;SDS011;15138;51.012;4.692;2023-03-21T04:33:03;13.75;;;4.20;;
27746;SDS011;15138;51.012;4.692;2023-03-21T04:35:32;15.43;;;4.57;;
27746;SDS011;15138;51.012;4.692;2023-03-21T04:38:03;15.07;;;4.68;;
27746;SDS011;15138;51.012;4.692;2023-03-21T04:40:31;17.45;;;5.05;;
27746;SDS011;15138;51.012;4.692;2023-03-21T04:43:00;17.88;;;4.55;;
27746;SDS011;15138;51.012;4.692;2023-03-21T04:45:30;14.13;;;4.75;;
27746;SDS011;15138;51.012;4.692;2023-03-21T04:47:59;19.67;;;5.45;;
27746;SDS011;15138;51.012;4.692;2023-03-21T04:50:27;14.40;;;4.03;;
27746;SDS011;15138;51.012;4.692;2023-03-21T04:52:57;14.30;;;4.10;;
27746;SDS011;15138;51.012;4.692;2023-03-21T04:55:25;18.60;;;4.82;;
27746;SDS011;15138;51.012;4.692;2023-03-21T04:57:56;18.20;;;4.57;;
27746;SDS011;15138;51.012;4.692;2023-03-21T05:00:25;14.07;;;4.80;;
27746;SDS011;15138;51.012;4.692;2023-03-21T05:02:55;12.25;;;4.13;;
27746;SDS011;15138;51.012;4.692;2023-03-21T05:05:23;22.85;;;5.80;;
27746;SDS011;15138;51.012;4.692;2023-03-21T05:07:52;13.13;;;4.82;;
27746;SDS011;15138;51.012;4.692;2023-03-21T05:10:20;16.05;;;5.53;;
27746;SDS011;15138;51.012;4.692;2023-03-21T05:12:49;19.90;;;5.00;;
27746;SDS011;15138;51.012;4.692;2023-03-21T05:15:18;15.07;;;5.43;;
27746;SDS011;15138;51.012;4.692;2023-03-21T05:17:46;26.88;;;5.72;;
27746;SDS011;15138;51.012;4.692;2023-03-21T05:20:17;21.65;;;6.55;;
27746;SDS011;15138;51.012;4.692;2023-03-21T05:22:45;15.40;;;6.03;;
27746;SDS011;15138;51.012;4.692;2023-03-21T05:25:15;21.90;;;7.32;;
27746;SDS011;15138;51.012;4.692;2023-03-21T05:28:00;23.08;;;7.15;;
27746;SDS011;15138;51.012;4.692;2023-03-21T05:30:29;14.63;;;5.57;;
27746;SDS011;15138;51.012;4.692;2023-03-21T05:32:59;27.13;;;7.18;;
27746;SDS011;15138;51.012;4.692;2023-03-21T05:35:29;23.00;;;6.75;;
27746;SDS011;15138;51.012;4.692;2023-03-21T05:37:57;19.73;;;6.30;;
27746;SDS011;15138;51.012;4.692;2023-03-21T05:40:26;19.27;;;6.93;;
27746;SDS011;15138;51.012;4.692;2023-03-21T05:42:55;16.83;;;6.28;;
27746;SDS011;15138;51.012;4.692;2023-03-21T05:45:24;19.45;;;6.63;;
27746;SDS011;15138;51.012;4.692;2023-03-21T05:47:52;23.35;;;7.22;;
27746;SDS011;15138;51.012;4.692;2023-03-21T05:50:21;17.73;;;5.90;;
27746;SDS011;15138;51.012;4.692;2023-03-21T05:52:51;16.15;;;6.10;;
27746;SDS011;15138;51.012;4.692;2023-03-21T05:55:19;17.73;;;5.80;;
27746;SDS011;15138;51.012;4.692;2023-03-21T05:57:48;23.77;;;7.65;;
27746;SDS011;15138;51.012;4.692;2023-03-21T06:00:16;20.20;;;7.07;;
27746;SDS011;15138;51.012;4.692;2023-03-21T06:02:47;19.42;;;7.60;;
27746;SDS011;15138;51.012;4.692;2023-03-21T06:05:15;22.77;;;6.22;;
27746;SDS011;15138;51.012;4.692;2023-03-21T06:07:44;16.35;;;7.25;;
27746;SDS011;15138;51.012;4.692;2023-03-21T06:10:14;19.65;;;6.35;;
27746;SDS011;15138;51.012;4.692;2023-03-21T06:12:42;20.13;;;7.00;;
27746;SDS011;15138;51.012;4.692;2023-03-21T06:15:11;24.88;;;7.57;;
27746;SDS011;15138;51.012;4.692;2023-03-21T06:17:39;18.13;;;6.40;;
27746;SDS011;15138;51.012;4.692;2023-03-21T06:20:08;17.58;;;6.15;;
27746;SDS011;15138;51.012;4.692;2023-03-21T06:22:38;23.00;;;7.30;;
27746;SDS011;15138;51.012;4.692;2023-03-21T06:25:07;19.75;;;7.85;;
27746;SDS011;15138;51.012;4.692;2023-03-21T06:27:37;19.17;;;6.68;;
27746;SDS011;15138;51.012;4.692;2023-03-21T06:30:06;19.38;;;6.88;;
27746;SDS011;15138;51.012;4.692;2023-03-21T06:32:34;17.50;;;7.07;;
27746;SDS011;15138;51.012;4.692;2023-03-21T06:35:03;22.13;;;7.00;;
27746;SDS011;15138;51.012;4.692;2023-03-21T06:37:32;17.48;;;6.50;;
27746;SDS011;15138;51.012;4.692;2023-03-21T06:40:00;21.73;;;7.20;;
27746;SDS011;15138;51.012;4.692;2023-03-21T06:42:30;23.60;;;7.38;;
27746;SDS011;15138;51.012;4.692;2023-03-21T06:45:00;19.77;;;6.50;;
27746;SDS011;15138;51.012;4.692;2023-03-21T06:47:29;37.65;;;15.77;;
27746;SDS011;15138;51.012;4.692;2023-03-21T06:49:57;26.50;;;10.07;;
27746;SDS011;15138;51.012;4.692;2023-03-21T06:52:26;28.42;;;9.50;;
27746;SDS011;15138;51.012;4.692;2023-03-21T06:54:54;40.08;;;17.73;;
27746;SDS011;15138;51.012;4.692;2023-03-21T06:57:23;31.27;;;11.15;;
27746;SDS011;15138;51.012;4.692;2023-03-21T06:59:51;55.20;;;22.35;;
27746;SDS011;15138;51.012;4.692;2023-03-21T07:02:21;23.83;;;8.82;;
27746;SDS011;15138;51.012;4.692;2023-03-21T07:04:50;16.73;;;8.30;;
27746;SDS011;15138;51.012;4.692;2023-03-21T07:07:23;26.23;;;9.95;;
27746;SDS011;15138;51.012;4.692;2023-03-21T07:09:52;27.50;;;8.80;;
27746;SDS011;15138;51.012;4.692;2023-03-21T07:12:21;24.63;;;8.88;;
27746;SDS011;15138;51.012;4.692;2023-03-21T07:14:50;23.58;;;9.55;;
27746;SDS011;15138;51.012;4.692;2023-03-21T07:17:19;28.13;;;9.23;;
27746;SDS011;15138;51.012;4.692;2023-03-21T07:19:49;20.23;;;8.75;;
27746;SDS011;15138;51.012;4.692;2023-03-21T07:22:17;29.00;;;8.85;;
27746;SDS011;15138;51.012;4.692;2023-03-21T07:24:45;23.15;;;9.07;;
27746;SDS011;15138;51.012;4.692;2023-03-21T07:27:29;21.80;;;8.80;;
27746;SDS011;15138;51.012;4.692;2023-03-21T07:29:58;22.08;;;9.32;;
27746;SDS011;15138;51.012;4.692;2023-03-21T07:32:27;21.98;;;8.50;;
27746;SDS011;15138;51.012;4.692;2023-03-21T07:34:57;25.70;;;9.77;;
27746;SDS011;15138;51.012;4.692;2023-03-21T07:37:27;27.48;;;8.38;;
27746;SDS011;15138;51.012;4.692;2023-03-21T07:39:56;21.65;;;8.68;;
27746;SDS011;15138;51.012;4.692;2023-03-21T07:42:25;20.90;;;8.77;;
27746;SDS011;15138;51.012;4.692;2023-03-21T07:44:54;18.77;;;8.68;;
27746;SDS011;15138;51.012;4.692;2023-03-21T07:47:22;23.02;;;8.75;;
27746;SDS011;15138;51.012;4.692;2023-03-21T07:49:51;19.65;;;9.23;;
27746;SDS011;15138;51.012;4.692;2023-03-21T07:52:21;23.17;;;8.85;;
27746;SDS011;15138;51.012;4.692;2023-03-21T07:54:49;23.80;;;9.13;;
27746;SDS011;15138;51.012;4.692;2023-03-21T07:57:17;22.70;;;8.82;;
27746;SDS011;15138;51.012;4.692;2023-03-21T07:59:46;19.67;;;7.05;;
27746;SDS011;15138;51.012;4.692;2023-03-21T08:02:15;33.33;;;8.32;;
27746;SDS011;15138;51.012;4.692;2023-03-21T08:04:44;18.67;;;6.80;;
27746;SDS011;15138;51.012;4.692;2023-03-21T08:07:12;22.08;;;7.43;;
27746;SDS011;15138;51.012;4.692;2023-03-21T08:09:43;21.67;;;8.10;;
27746;SDS011;15138;51.012;4.692;2023-03-21T08:12:11;22.52;;;7.05;;
27746;SDS011;15138;51.012;4.692;2023-03-21T08:14:40;16.42;;;6.38;;
27746;SDS011;15138;51.012;4.692;2023-03-21T08:17:09;20.38;;;6.45;;
27746;SDS011;15138;51.012;4.692;2023-03-21T08:19:37;16.58;;;5.07;;
27746;SDS011;15138;51.012;4.692;2023-03-21T08:22:06;14.60;;;5.10;;
27746;SDS011;15138;51.012;4.692;2023-03-21T08:24:36;19.08;;;7.10;;
27746;SDS011;15138;51.012;4.692;2023-03-21T08:27:06;7.82;;;3.92;;
27746;SDS011;15138;51.012;4.692;2023-03-21T08:29:34;15.85;;;4.70;;
27746;SDS011;15138;51.012;4.692;2023-03-21T08:32:05;15.02;;;5.63;;
27746;SDS011;15138;51.012;4.692;2023-03-21T08:34:34;16.90;;;5.15;;
27746;SDS011;15138;51.012;4.692;2023-03-21T08:37:03;11.45;;;4.32;;
27746;SDS011;15138;51.012;4.692;2023-03-21T08:39:32;14.88;;;4.35;;
27746;SDS011;15138;51.012;4.692;2023-03-21T08:42:00;10.95;;;3.95;;
27746;SDS011;15138;51.012;4.692;2023-03-21T08:44:32;13.60;;;4.10;;
27746;SDS011;15138;51.012;4.692;2023-03-21T08:47:02;10.90;;;3.90;;
27746;SDS011;15138;51.012;4.692;2023-03-21T08:49:32;14.68;;;4.60;;
27746;SDS011;15138;51.012;4.692;2023-03-21T08:52:01;11.90;;;4.32;;
27746;SDS011;15138;51.012;4.692;2023-03-21T08:54:31;14.40;;;4.60;;
27746;SDS011;15138;51.012;4.692;2023-03-21T08:57:00;12.48;;;4.20;;
27746;SDS011;15138;51.012;4.692;2023-03-21T08:59:28;17.17;;;5.03;;
27746;SDS011;15138;51.012;4.692;2023-03-21T09:01:58;13.27;;;3.97;;
27746;SDS011;15138;51.012;4.692;2023-03-21T09:04:27;9.45;;;3.72;;
27746;SDS011;15138;51.012;4.692;2023-03-21T09:06:57;14.68;;;4.57;;
27746;SDS011;15138;51.012;4.692;2023-03-21T09:09:26;9.95;;;4.03;;
27746;SDS011;15138;51.012;4.692;2023-03-21T09:11:55;14.68;;;5.07;;
27746;SDS011;15138;51.012;4.692;2023-03-21T09:14:24;13.95;;;5.25;;
27746;SDS011;15138;51.012;4.692;2023-03-21T09:16:54;14.35;;;4.82;;
27746;SDS011;15138;51.012;4.692;2023-03-21T09:19:24;20.90;;;4.93;;
27746;SDS011;15138;51.012;4.692;2023-03-21T09:21:53;15.93;;;4.43;;
27746;SDS011;15138;51.012;4.692;2023-03-21T09:24:22;11.77;;;3.88;;
27746;SDS011;15138;51.012;4.692;2023-03-21T09:26:51;11.35;;;4.38;;
27746;SDS011;15138;51.012;4.692;2023-03-21T09:29:20;13.65;;;4.72;;
27746;SDS011;15138;51.012;4.692;2023-03-21T09:31:48;14.40;;;4.40;;
27746;SDS011;15138;51.012;4.692;2023-03-21T09:34:18;15.45;;;5.22;;
27746;SDS011;15138;51.012;4.692;2023-03-21T09:36:49;10.23;;;4.00;;
27746;SDS011;15138;51.012;4.692;2023-03-21T09:39:21;14.93;;;4.43;;
27746;SDS011;15138;51.012;4.692;2023-03-21T09:42:06;11.82;;;5.10;;
27746;SDS011;15138;51.012;4.692;2023-03-21T09:44:46;13.27;;;4.45;;
27746;SDS011;15138;51.012;4.692;2023-03-21T09:47:19;11.50;;;4.35;;
27746;SDS011;15138;51.012;4.692;2023-03-21T09:49:51;18.55;;;4.68;;
27746;SDS011;15138;51.012;4.692;2023-03-21T09:52:41;9.65;;;4.30;;
27746;SDS011;15138;51.012;4.692;2023-03-21T09:55:14;12.77;;;4.78;;
27746;SDS011;15138;51.012;4.692;2023-03-21T09:57:45;13.00;;;4.82;;
27746;SDS011;15138;51.012;4.692;2023-03-21T10:00:16;12.63;;;5.10;;
27746;SDS011;15138;51.012;4.692;2023-03-21T10:02:50;12.05;;;5.00;;
27746;SDS011;15138;51.012;4.692;2023-03-21T10:05:23;18.17;;;5.60;;
27746;SDS011;15138;51.012;4.692;2023-03-21T10:07:54;11.68;;;4.10;;
27746;SDS011;15138;51.012;4.692;2023-03-21T10:10:25;11.85;;;3.97;;
27746;SDS011;15138;51.012;4.692;2023-03-21T10:12:55;10.85;;;4.10;;
27746;SDS011;15138;51.012;4.692;2023-03-21T10:15:24;13.90;;;4.28;;
27746;SDS011;15138;51.012;4.692;2023-03-21T10:17:54;13.45;;;4.45;;
27746;SDS011;15138;51.012;4.692;2023-03-21T10:20:24;12.95;;;4.53;;
27746;SDS011;15138;51.012;4.692;2023-03-21T10:22:55;12.85;;;4.47;;
27746;SDS011;15138;51.012;4.692;2023-03-21T10:25:25;11.63;;;4.28;;
27746;SDS011;15138;51.012;4.692;2023-03-21T10:27:55;12.05;;;4.07;;
27746;SDS011;15138;51.012;4.692;2023-03-21T10:30:25;9.90;;;3.28;;
27746;SDS011;15138;51.012;4.692;2023-03-21T10:32:55;13.70;;;4.80;;
27746;SDS011;15138;51.012;4.692;2023-03-21T10:35:25;12.98;;;4.43;;
27746;SDS011;15138;51.012;4.692;2023-03-21T10:37:55;12.05;;;4.05;;
27746;SDS011;15138;51.012;4.692;2023-03-21T10:40:23;10.70;;;3.75;;
27746;SDS011;15138;51.012;4.692;2023-03-21T10:42:53;9.23;;;3.88;;
27746;SDS011;15138;51.012;4.692;2023-03-21T10:45:22;13.35;;;3.95;;
27746;SDS011;15138;51.012;4.692;2023-03-21T10:47:51;11.05;;;3.63;;
27746;SDS011;15138;51.012;4.692;2023-03-21T10:50:21;10.75;;;3.53;;
27746;SDS011;15138;51.012;4.692;2023-03-21T10:52:55;17.13;;;3.95;;
27746;SDS011;15138;51.012;4.692;2023-03-21T10:55:27;12.73;;;4.03;;
27746;SDS011;15138;51.012;4.692;2023-03-21T10:57:58;12.68;;;4.20;;
27746;SDS011;15138;51.012;4.692;2023-03-21T11:00:28;13.13;;;3.90;;
27746;SDS011;15138;51.012;4.692;2023-03-21T11:02:57;14.70;;;3.50;;
27746;SDS011;15138;51.012;4.692;2023-03-21T11:05:32;12.55;;;3.50;;
27746;SDS011;15138;51.012;4.692;2023-03-21T11:08:04;11.98;;;4.45;;
27746;SDS011;15138;51.012;4.692;2023-03-21T11:10:34;12.45;;;3.78;;
27746;SDS011;15138;51.012;4.692;2023-03-21T11:13:05;11.68;;;3.70;;
27746;SDS011;15138;51.012;4.692;2023-03-21T11:15:40;11.27;;;3.20;;
27746;SDS011;15138;51.012;4.692;2023-03-21T11:18:16;11.90;;;3.75;;
27746;SDS011;15138;51.012;4.692;2023-03-21T11:20:49;9.73;;;3.67;;
27746;SDS011;15138;51.012;4.692;2023-03-21T11:23:19;7.05;;;3.30;;
27746;SDS011;15138;51.012;4.692;2023-03-21T11:25:48;12.02;;;3.65;;
27746;SDS011;15138;51.012;4.692;2023-03-21T11:28:18;9.38;;;3.75;;
27746;SDS011;15138;51.012;4.692;2023-03-21T11:30:48;13.23;;;3.58;;
27746;SDS011;15138;51.012;4.692;2023-03-21T11:33:18;12.75;;;3.85;;
27746;SDS011;15138;51.012;4.692;2023-03-21T11:35:56;15.13;;;4.05;;
27746;SDS011;15138;51.012;4.692;2023-03-21T11:38:28;8.25;;;2.70;;
27746;SDS011;15138;51.012;4.692;2023-03-21T11:40:58;10.48;;;3.78;;
27746;SDS011;15138;51.012;4.692;2023-03-21T11:43:28;9.55;;;3.42;;
27746;SDS011;15138;51.012;4.692;2023-03-21T11:45:58;8.93;;;3.03;;
27746;SDS011;15138;51.012;4.692;2023-03-21T11:48:27;12.80;;;3.67;;
27746;SDS011;15138;51.012;4.692;2023-03-21T11:50:58;12.10;;;4.80;;
27746;SDS011;15138;51.012;4.692;2023-03-21T11:53:31;7.72;;;3.97;;
27746;SDS011;15138;51.012;4.692;2023-03-21T11:56:07;8.93;;;3.67;;
27746;SDS011;15138;51.012;4.692;2023-03-21T11:58:42;10.93;;;3.92;;
27746;SDS011;15138;51.012;4.692;2023-03-21T12:03:54;14.32;;;4.22;;
27746;SDS011;15138;51.012;4.692;2023-03-21T12:06:27;10.45;;;4.68;;
27746;SDS011;15138;51.012;4.692;2023-03-21T12:11:48;11.13;;;4.35;;
27746;SDS011;15138;51.012;4.692;2023-03-21T12:14:21;10.60;;;4.63;;
27746;SDS011;15138;51.012;4.692;2023-03-21T12:16:57;18.13;;;4.70;;
27746;SDS011;15138;51.012;4.692;2023-03-21T12:19:43;10.00;;;4.18;;
27746;SDS011;15138;51.012;4.692;2023-03-21T12:22:16;11.13;;;4.13;;
27746;SDS011;15138;51.012;4.692;2023-03-21T12:24:48;8.55;;;4.15;;
27746;SDS011;15138;51.012;4.692;2023-03-21T12:27:21;9.48;;;4.13;;
27746;SDS011;15138;51.012;4.692;2023-03-21T12:29:54;10.98;;;3.30;;
27746;SDS011;15138;51.012;4.692;2023-03-21T12:32:35;11.23;;;4.15;;
27746;SDS011;15138;51.012;4.692;2023-03-21T12:35:19;15.57;;;3.75;;
27746;SDS011;15138;51.012;4.692;2023-03-21T12:37:52;11.65;;;3.80;;
27746;SDS011;15138;51.012;4.692;2023-03-21T12:40:29;10.60;;;3.40;;
27746;SDS011;15138;51.012;4.692;2023-03-21T12:45:50;7.78;;;3.60;;
27746;SDS011;15138;51.012;4.692;2023-03-21T12:48:21;10.25;;;3.67;;
27746;SDS011;15138;51.012;4.692;2023-03-21T12:50:53;9.52;;;3.60;;
27746;SDS011;15138;51.012;4.692;2023-03-21T12:53:28;9.65;;;3.72;;
27746;SDS011;15138;51.012;4.692;2023-03-21T12:56:01;8.40;;;3.03;;
27746;SDS011;15138;51.012;4.692;2023-03-21T12:58:33;7.90;;;2.95;;
27746;SDS011;15138;51.012;4.692;2023-03-21T13:03:38;9.02;;;3.83;;
27746;SDS011;15138;51.012;4.692;2023-03-21T13:06:09;9.95;;;2.85;;
27746;SDS011;15138;51.012;4.692;2023-03-21T13:08:40;7.82;;;3.55;;
27746;SDS011;15138;51.012;4.692;2023-03-21T13:11:10;8.82;;;3.50;;
27746;SDS011;15138;51.012;4.692;2023-03-21T13:13:41;8.52;;;3.78;;
27746;SDS011;15138;51.012;4.692;2023-03-21T13:16:11;12.88;;;3.25;;
27746;SDS011;15138;51.012;4.692;2023-03-21T13:18:46;7.50;;;3.13;;
27746;SDS011;15138;51.012;4.692;2023-03-21T13:21:17;6.97;;;3.05;;
27746;SDS011;15138;51.012;4.692;2023-03-21T13:23:59;5.30;;;2.88;;
27746;SDS011;15138;51.012;4.692;2023-03-21T13:26:32;9.02;;;2.83;;
27746;SDS011;15138;51.012;4.692;2023-03-21T13:29:01;11.48;;;3.17;;
27746;SDS011;15138;51.012;4.692;2023-03-21T13:31:42;6.47;;;2.90;;
27746;SDS011;15138;51.012;4.692;2023-03-21T13:34:20;8.35;;;3.33;;
27746;SDS011;15138;51.012;4.692;2023-03-21T13:36:49;7.10;;;3.42;;
27746;SDS011;15138;51.012;4.692;2023-03-21T13:39:19;14.25;;;3.55;;
27746;SDS011;15138;51.012;4.692;2023-03-21T13:41:49;9.95;;;2.72;;
27746;SDS011;15138;51.012;4.692;2023-03-21T13:44:22;9.65;;;2.83;;
27746;SDS011;15138;51.012;4.692;2023-03-21T13:46:54;10.13;;;2.97;;
27746;SDS011;15138;51.012;4.692;2023-03-21T13:49:29;5.07;;;2.90;;
27746;SDS011;15138;51.012;4.692;2023-03-21T13:51:58;9.25;;;3.58;;
27746;SDS011;15138;51.012;4.692;2023-03-21T13:54:28;7.40;;;2.33;;
27746;SDS011;15138;51.012;4.692;2023-03-21T13:57:00;7.15;;;2.53;;
27746;SDS011;15138;51.012;4.692;2023-03-21T13:59:35;9.13;;;3.20;;
27746;SDS011;15138;51.012;4.692;2023-03-21T14:02:17;10.23;;;3.60;;
27746;SDS011;15138;51.012;4.692;2023-03-21T14:04:51;10.77;;;3.85;;
27746;SDS011;15138;51.012;4.692;2023-03-21T14:07:31;10.00;;;3.55;;
27746;SDS011;15138;51.012;4.692;2023-03-21T14:10:01;8.85;;;3.00;;
27746;SDS011;15138;51.012;4.692;2023-03-21T14:12:34;8.30;;;2.97;;
27746;SDS011;15138;51.012;4.692;2023-03-21T14:15:06;9.95;;;4.18;;
27746;SDS011;15138;51.012;4.692;2023-03-21T14:17:48;8.00;;;3.10;;
27746;SDS011;15138;51.012;4.692;2023-03-21T14:20:19;8.02;;;3.33;;
27746;SDS011;15138;51.012;4.692;2023-03-21T14:22:49;9.55;;;3.40;;
27746;SDS011;15138;51.012;4.692;2023-03-21T14:25:19;6.78;;;3.05;;
27746;SDS011;15138;51.012;4.692;2023-03-21T14:27:50;9.10;;;3.58;;
27746;SDS011;15138;51.012;4.692;2023-03-21T14:30:20;9.65;;;3.05;;
27746;SDS011;15138;51.012;4.692;2023-03-21T14:32:52;5.05;;;2.80;;
27746;SDS011;15138;51.012;4.692;2023-03-21T14:35:22;8.93;;;3.10;;
27746;SDS011;15138;51.012;4.692;2023-03-21T14:37:51;6.82;;;2.95;;
27746;SDS011;15138;51.012;4.692;2023-03-21T14:40:20;11.25;;;3.53;;
27746;SDS011;15138;51.012;4.692;2023-03-21T14:42:50;6.55;;;3.20;;
27746;SDS011;15138;51.012;4.692;2023-03-21T14:45:20;5.63;;;2.35;;
27746;SDS011;15138;51.012;4.692;2023-03-21T14:47:55;7.85;;;2.13;;
27746;SDS011;15138;51.012;4.692;2023-03-21T14:50:28;9.15;;;3.25;;
27746;SDS011;15138;51.012;4.692;2023-03-21T14:52:58;9.25;;;3.30;;
27746;SDS011;15138;51.012;4.692;2023-03-21T14:55:27;5.25;;;2.70;;
27746;SDS011;15138;51.012;4.692;2023-03-21T14:57:57;6.32;;;3.35;;
27746;SDS011;15138;51.012;4.692;2023-03-21T15:00:26;8.35;;;3.45;;
27746;SDS011;15138;51.012;4.692;2023-03-21T15:02:56;11.05;;;3.20;;
27746;SDS011;15138;51.012;4.692;2023-03-21T15:05:26;9.10;;;3.28;;
27746;SDS011;15138;51.012;4.692;2023-03-21T15:07:59;12.20;;;4.22;;
27746;SDS011;15138;51.012;4.692;2023-03-21T15:10:29;7.10;;;3.58;;
27746;SDS011;15138;51.012;4.692;2023-03-21T15:12:58;7.13;;;3.20;;
27746;SDS011;15138;51.012;4.692;2023-03-21T15:15:27;8.13;;;4.15;;
27746;SDS011;15138;51.012;4.692;2023-03-21T15:17:59;13.57;;;4.53;;